createdAt,value
2022-08-25T00:00:24.163Z,23.10
2022-08-25T00:02:57.834Z,16.75
2022-08-25T00:05:32.242Z,16.05
2022-08-25T00:08:07.306Z,23.27
2022-08-25T00:10:40.137Z,17.55
2022-08-25T00:13:11.146Z,15.63
2022-08-25T00:15:41.766Z,17.73
2022-08-25T00:18:19.643Z,14.80
2022-08-25T00:20:52.553Z,16.38
2022-08-25T00:23:23.457Z,13.15
2022-08-25T00:25:54.102Z,14.50
2022-08-25T00:28:24.324Z,16.55
2022-08-25T00:30:54.223Z,15.57
2022-08-25T00:33:24.738Z,15.32
2022-08-25T00:35:57.659Z,18.23
2022-08-25T00:38:28.761Z,12.80
2022-08-25T00:41:08.626Z,20.92
2022-08-25T00:43:50.592Z,14.75
2022-08-25T00:46:26.998Z,13.93
2022-08-25T00:49:03.750Z,16.85
2022-08-25T00:51:44.737Z,18.77
2022-08-25T00:54:23.867Z,18.50
2022-08-25T00:56:54.693Z,17.58
2022-08-25T00:59:27.659Z,17.85
2022-08-25T01:02:00.254Z,20.17
2022-08-25T01:07:02.097Z,16.45
2022-08-25T01:09:34.537Z,17.30
2022-08-25T01:12:05.916Z,21.08
2022-08-25T01:14:37.267Z,20.17
2022-08-25T01:17:07.562Z,18.60
2022-08-25T01:19:37.701Z,16.60
2022-08-25T01:22:08.377Z,18.67
2022-08-25T01:24:52.260Z,23.20
2022-08-25T01:27:22.715Z,16.15
2022-08-25T01:29:52.706Z,14.50
2022-08-25T01:32:23.762Z,18.10
2022-08-25T01:34:54.188Z,16.60
2022-08-25T01:37:24.637Z,21.35
2022-08-25T01:39:55.350Z,15.32
2022-08-25T01:43:01.471Z,17.30
2022-08-25T01:45:32.426Z,17.92
2022-08-25T01:48:03.823Z,20.58
2022-08-25T01:50:34.592Z,15.13
2022-08-25T01:53:06.610Z,16.38
2022-08-25T01:58:28.673Z,24.75
2022-08-25T02:01:02.766Z,19.88
2022-08-25T02:03:33.359Z,14.07
2022-08-25T02:06:04.279Z,17.67
2022-08-25T02:08:36.000Z,20.60
2022-08-25T02:11:06.266Z,15.88
2022-08-25T02:13:36.483Z,16.50
2022-08-25T02:16:07.459Z,20.08
2022-08-25T02:18:37.553Z,20.35
2022-08-25T02:21:08.115Z,18.45
2022-08-25T02:23:38.437Z,15.63
2022-08-25T02:26:09.280Z,18.52
2022-08-25T02:28:39.668Z,18.17
2022-08-25T02:31:09.675Z,16.88
2022-08-25T02:33:41.148Z,16.75
2022-08-25T02:36:11.964Z,17.05
2022-08-25T02:38:42.947Z,17.98
2022-08-25T02:41:19.525Z,14.55
2022-08-25T02:43:51.635Z,16.10
2022-08-25T02:46:24.054Z,17.60
2022-08-25T02:51:26.596Z,22.77
2022-08-25T02:53:58.609Z,21.17
2022-08-25T02:56:29.587Z,14.00
2022-08-25T02:59:00.338Z,15.27
2022-08-25T03:01:32.503Z,21.70
2022-08-25T03:04:03.610Z,17.63
2022-08-25T03:06:34.571Z,16.83
2022-08-25T03:09:05.436Z,19.50
2022-08-25T03:11:38.487Z,17.67
2022-08-25T03:14:12.056Z,15.70
2022-08-25T03:16:46.209Z,20.63
2022-08-25T03:19:16.670Z,15.63
2022-08-25T03:21:47.237Z,14.68
2022-08-25T03:24:17.846Z,12.70
2022-08-25T03:27:00.315Z,18.88
2022-08-25T03:29:34.031Z,11.10
2022-08-25T03:32:04.394Z,18.52
2022-08-25T03:34:35.245Z,16.15
2022-08-25T03:37:08.160Z,19.25
2022-08-25T03:39:38.198Z,17.85
2022-08-25T03:42:09.492Z,14.20
2022-08-25T03:44:40.143Z,16.55
2022-08-25T03:47:10.550Z,14.43
2022-08-25T03:49:40.892Z,14.55
2022-08-25T03:52:11.642Z,14.93
2022-08-25T03:54:42.762Z,17.67
2022-08-25T03:57:13.770Z,15.18
2022-08-25T03:59:44.178Z,16.63
2022-08-25T04:02:14.182Z,14.60
2022-08-25T04:04:44.606Z,13.57
2022-08-25T04:07:16.589Z,14.15
2022-08-25T04:09:46.575Z,14.73
2022-08-25T04:12:16.756Z,18.35
2022-08-25T04:17:19.949Z,15.02
2022-08-25T04:19:50.277Z,14.80
2022-08-25T04:22:20.983Z,17.98
2022-08-25T04:24:51.712Z,14.98
2022-08-25T04:27:22.185Z,13.77
2022-08-25T04:29:52.609Z,14.80
2022-08-25T04:32:22.651Z,12.10
2022-08-25T04:34:53.588Z,15.90
2022-08-25T04:37:24.000Z,11.43
2022-08-25T04:39:54.501Z,17.67
2022-08-25T04:42:24.468Z,20.45
2022-08-25T04:44:55.759Z,14.05
2022-08-25T04:47:27.702Z,15.98
2022-08-25T04:49:58.962Z,11.27
2022-08-25T04:52:28.915Z,12.00
2022-08-25T04:54:59.533Z,16.27
2022-08-25T04:57:29.746Z,12.13
2022-08-25T04:59:59.851Z,14.10
2022-08-25T05:02:29.977Z,15.13
2022-08-25T05:05:01.140Z,16.70
2022-08-25T05:07:31.825Z,17.65
2022-08-25T05:10:01.726Z,15.48
2022-08-25T05:12:33.044Z,12.63
2022-08-25T05:15:23.221Z,16.75
2022-08-25T05:17:59.844Z,12.82
2022-08-25T05:20:32.399Z,13.15
2022-08-25T05:23:02.705Z,11.13
2022-08-25T05:25:33.003Z,13.63
2022-08-25T05:28:04.256Z,14.20
2022-08-25T05:30:34.853Z,12.65
2022-08-25T05:33:05.350Z,17.40
2022-08-25T05:35:35.855Z,13.35
2022-08-25T05:38:07.320Z,17.48
2022-08-25T05:40:45.947Z,14.25
2022-08-25T05:43:16.966Z,15.18
2022-08-25T05:45:47.883Z,13.38
2022-08-25T05:48:18.330Z,13.85
2022-08-25T05:51:09.333Z,13.68
2022-08-25T05:53:44.151Z,10.73
2022-08-25T05:56:15.238Z,11.48
2022-08-25T05:58:46.620Z,12.27
2022-08-25T06:01:47.370Z,14.18
2022-08-25T06:04:22.061Z,16.80
2022-08-25T06:06:55.154Z,13.88
2022-08-25T06:09:26.268Z,12.60
2022-08-25T06:11:56.898Z,13.13
2022-08-25T06:14:28.734Z,14.80
2022-08-25T06:16:58.851Z,12.85
2022-08-25T06:19:29.183Z,14.07
2022-08-25T06:22:00.221Z,13.27
2022-08-25T06:24:31.604Z,13.57
2022-08-25T06:27:01.944Z,16.48
2022-08-25T06:29:31.833Z,17.95
2022-08-25T06:32:02.454Z,12.40
2022-08-25T06:34:32.855Z,18.15
2022-08-25T06:37:03.062Z,19.00
2022-08-25T06:39:33.128Z,12.85
2022-08-25T06:42:03.712Z,13.15
2022-08-25T06:44:33.850Z,16.98
2022-08-25T06:47:04.513Z,11.40
2022-08-25T06:49:36.225Z,17.83
2022-08-25T06:52:06.917Z,10.68
2022-08-25T06:54:37.403Z,18.40
2022-08-25T06:57:08.574Z,19.23
2022-08-25T06:59:41.552Z,14.57
2022-08-25T07:02:12.025Z,15.10
2022-08-25T07:04:42.374Z,16.98
2022-08-25T07:07:12.977Z,13.65
2022-08-25T07:09:43.064Z,12.95
2022-08-25T07:12:12.987Z,10.57
2022-08-25T07:14:58.018Z,15.32
2022-08-25T07:17:34.187Z,20.35
2022-08-25T07:20:04.761Z,20.35
2022-08-25T07:22:35.264Z,15.55
2022-08-25T07:25:05.647Z,14.38
2022-08-25T07:27:36.251Z,13.20
2022-08-25T07:30:08.657Z,13.07
2022-08-25T07:32:41.909Z,12.98
2022-08-25T07:35:20.416Z,12.30
2022-08-25T07:38:00.170Z,13.10
2022-08-25T07:40:43.070Z,20.90
2022-08-25T07:43:14.361Z,12.63
2022-08-25T07:45:48.138Z,11.73
2022-08-25T07:48:23.386Z,11.85
2022-08-25T07:50:53.956Z,15.45
2022-08-25T07:53:24.152Z,13.70
2022-08-25T07:55:54.295Z,16.00
2022-08-25T07:58:25.338Z,13.32
2022-08-25T08:00:55.573Z,12.63
2022-08-25T08:03:44.770Z,18.23
2022-08-25T08:06:18.540Z,12.38
2022-08-25T08:08:50.758Z,15.65
2022-08-25T08:11:31.408Z,14.93
2022-08-25T08:14:03.255Z,11.70
2022-08-25T08:16:34.273Z,13.60
2022-08-25T08:19:07.323Z,12.57
2022-08-25T08:21:38.528Z,13.82
2022-08-25T08:24:24.856Z,16.38
2022-08-25T08:27:00.165Z,15.07
2022-08-25T08:29:30.784Z,10.70
2022-08-25T08:32:02.437Z,14.55
2022-08-25T08:34:33.430Z,14.45
2022-08-25T08:37:03.827Z,14.15
2022-08-25T08:39:33.736Z,11.68
2022-08-25T08:42:33.915Z,14.13
2022-08-25T08:45:40.247Z,11.68
2022-08-25T08:48:43.833Z,13.35
2022-08-25T08:51:33.111Z,13.70
2022-08-25T08:54:16.594Z,12.38
2022-08-25T08:56:52.325Z,14.65
2022-08-25T08:59:31.369Z,12.30
2022-08-25T09:02:04.177Z,12.20
2022-08-25T09:04:40.627Z,12.93
2022-08-25T09:07:21.001Z,14.98
2022-08-25T09:09:52.532Z,12.88
2022-08-25T09:12:48.351Z,18.50
2022-08-25T09:15:54.637Z,12.32
2022-08-25T09:18:51.178Z,16.73
2022-08-25T09:21:55.681Z,17.63
2022-08-25T09:24:44.525Z,15.00
2022-08-25T09:27:29.664Z,16.27
2022-08-25T09:30:10.787Z,17.17
2022-08-25T09:32:49.016Z,14.45
2022-08-25T09:35:29.286Z,11.65
2022-08-25T09:38:06.002Z,13.88
2022-08-25T09:40:39.571Z,16.33
2022-08-25T09:43:33.630Z,14.27
2022-08-25T09:46:24.479Z,19.48
2022-08-25T09:49:00.742Z,15.77
2022-08-25T09:51:42.366Z,14.43
2022-08-25T09:54:19.765Z,14.98
2022-08-25T09:56:55.171Z,18.15
2022-08-25T09:59:35.075Z,14.18
2022-08-25T10:02:34.871Z,15.68
2022-08-25T10:05:28.505Z,13.98
2022-08-25T10:08:01.703Z,15.85
2022-08-25T10:10:45.491Z,16.73
2022-08-25T10:13:22.782Z,16.40
2022-08-25T10:16:20.495Z,13.50
2022-08-25T10:19:14.235Z,26.02
2022-08-25T10:21:45.386Z,15.95
2022-08-25T10:24:16.547Z,15.93
2022-08-25T10:27:00.913Z,19.90
2022-08-25T10:30:06.949Z,15.48
2022-08-25T10:33:01.921Z,14.23
2022-08-25T10:35:58.714Z,16.48
2022-08-25T10:38:43.068Z,16.50
2022-08-25T10:41:46.917Z,20.35
2022-08-25T10:45:01.418Z,17.02
2022-08-25T10:47:40.439Z,16.27
2022-08-25T10:50:29.757Z,16.95
2022-08-25T10:53:30.219Z,19.98
2022-08-25T10:56:26.945Z,15.23
2022-08-25T10:59:18.802Z,16.23
2022-08-25T11:02:31.755Z,17.90
2022-08-25T11:05:48.744Z,14.57
2022-08-25T11:08:34.974Z,16.23
2022-08-25T11:11:40.693Z,14.50
2022-08-25T11:14:41.198Z,17.63
2022-08-25T11:17:27.050Z,19.17
2022-08-25T11:20:05.182Z,21.35
2022-08-25T11:22:48.568Z,16.95
2022-08-25T11:25:28.220Z,16.45
2022-08-25T11:30:54.703Z,14.15
2022-08-25T11:33:31.368Z,12.82
2022-08-25T11:36:29.638Z,12.68
2022-08-25T11:39:24.506Z,13.88
2022-08-25T11:42:00.787Z,16.48
2022-08-25T11:44:40.056Z,19.38
2022-08-25T11:47:49.694Z,17.58
2022-08-25T11:53:28.089Z,19.08
2022-08-25T11:56:21.178Z,21.38
2022-08-25T11:58:53.557Z,21.80
2022-08-25T12:01:41.539Z,21.55
2022-08-25T12:04:32.801Z,16.88
2022-08-25T12:07:03.171Z,18.58
2022-08-25T12:09:34.568Z,20.58
2022-08-25T12:12:33.446Z,24.52
2022-08-25T12:15:24.187Z,24.02
2022-08-25T12:18:11.385Z,19.10
2022-08-25T12:20:58.586Z,17.33
2022-08-25T12:23:46.350Z,18.73
2022-08-25T12:26:49.756Z,14.00
2022-08-25T12:29:47.282Z,18.33
2022-08-25T12:32:19.998Z,15.95
2022-08-25T12:35:11.461Z,28.23
2022-08-25T12:38:06.098Z,31.95
2022-08-25T12:40:46.916Z,32.90
2022-08-25T12:43:37.548Z,17.98
2022-08-25T12:49:01.709Z,20.58
2022-08-25T12:51:38.211Z,14.15
2022-08-25T12:54:38.324Z,22.92
2022-08-25T12:57:36.296Z,14.38
2022-08-25T13:00:47.064Z,16.60
2022-08-25T13:09:26.924Z,7.60
2022-08-25T13:12:09.786Z,12.00
2022-08-25T13:14:45.814Z,8.73
2022-08-25T13:17:29.178Z,8.63
2022-08-25T13:20:20.186Z,8.52
2022-08-25T13:22:56.820Z,8.18
2022-08-25T13:25:32.756Z,9.98
2022-08-25T13:28:11.264Z,13.55
2022-08-25T13:30:44.635Z,7.53
2022-08-25T13:33:23.765Z,10.07
2022-08-25T13:36:16.277Z,7.28
2022-08-25T13:38:48.394Z,7.97
2022-08-25T13:44:01.999Z,10.73
2022-08-25T13:46:35.551Z,11.20
2022-08-25T13:49:11.788Z,7.72
2022-08-25T13:51:54.497Z,6.45
2022-08-25T13:54:41.050Z,7.60
2022-08-25T13:57:31.372Z,6.93
2022-08-25T14:00:10.660Z,7.75
2022-08-25T14:02:49.918Z,8.00
2022-08-25T14:05:37.831Z,7.85
2022-08-25T14:08:30.578Z,8.68
2022-08-25T14:11:26.547Z,7.82
2022-08-25T14:14:13.689Z,10.73
2022-08-25T14:17:04.966Z,8.95
2022-08-25T14:19:48.698Z,8.45
2022-08-25T14:22:19.370Z,8.93
2022-08-25T14:24:49.493Z,8.30
2022-08-25T14:27:20.791Z,7.70
2022-08-25T14:29:52.916Z,7.45
2022-08-25T14:32:24.031Z,8.43
2022-08-25T14:34:56.421Z,8.27
2022-08-25T14:37:27.077Z,6.93
2022-08-25T14:39:59.678Z,8.15
2022-08-25T14:42:30.194Z,8.27
2022-08-25T14:45:00.258Z,8.05
2022-08-25T14:47:33.022Z,7.40
2022-08-25T14:50:03.962Z,7.60
2022-08-25T14:52:35.410Z,7.65
2022-08-25T14:55:05.882Z,7.53
2022-08-25T14:57:37.377Z,7.40
2022-08-25T15:00:12.607Z,6.22
2022-08-25T15:02:45.302Z,5.40
2022-08-25T15:05:23.872Z,6.65
2022-08-25T15:08:14.902Z,7.72
2022-08-25T15:13:16.007Z,7.03
2022-08-25T15:15:53.013Z,7.80
2022-08-25T15:18:24.278Z,7.38
2022-08-25T15:20:55.187Z,7.65
2022-08-25T15:23:27.570Z,6.57
2022-08-25T15:25:58.098Z,9.35
2022-08-25T15:28:28.900Z,8.68
2022-08-25T15:30:59.622Z,6.72
2022-08-25T15:33:30.705Z,10.75
2022-08-25T15:36:01.114Z,6.25
2022-08-25T15:38:33.269Z,8.40
2022-08-25T15:41:04.586Z,7.38
2022-08-25T15:43:35.837Z,7.25
2022-08-25T15:46:07.986Z,6.38
2022-08-25T15:51:09.735Z,6.22
2022-08-25T15:56:10.112Z,7.72
2022-08-25T15:58:45.991Z,6.18
2022-08-25T16:01:31.310Z,7.30
2022-08-25T16:04:01.403Z,6.10
2022-08-25T16:06:31.361Z,5.95
2022-08-25T16:09:03.524Z,7.28
2022-08-25T16:11:38.627Z,6.57
2022-08-25T16:14:09.170Z,9.05
2022-08-25T16:16:39.758Z,5.55
2022-08-25T16:19:11.718Z,7.25
2022-08-25T16:21:47.132Z,6.18
2022-08-25T16:24:19.323Z,6.40
2022-08-25T16:26:51.838Z,7.15
2022-08-25T16:29:22.838Z,6.97
2022-08-25T16:31:55.018Z,6.68
2022-08-25T16:34:28.666Z,6.00
2022-08-25T16:37:01.110Z,10.43
2022-08-25T16:39:31.544Z,5.38
2022-08-25T16:42:03.315Z,6.13
2022-08-25T16:44:35.730Z,6.78
2022-08-25T16:47:08.980Z,6.10
2022-08-25T16:49:40.469Z,5.55
2022-08-25T16:52:29.379Z,5.72
2022-08-25T16:55:17.151Z,6.80
2022-08-25T16:57:56.442Z,5.55
2022-08-25T17:00:29.711Z,5.20
2022-08-25T17:03:06.007Z,5.80
2022-08-25T17:05:43.181Z,5.63
2022-08-25T17:08:31.616Z,4.78
2022-08-25T17:11:09.736Z,6.43
2022-08-25T17:13:44.561Z,7.22
2022-08-25T17:16:16.000Z,5.25
2022-08-25T17:18:47.846Z,8.68
2022-08-25T17:21:24.759Z,5.60
2022-08-25T17:23:59.259Z,5.50
2022-08-25T17:26:31.553Z,4.95
2022-08-25T17:29:03.628Z,5.28
2022-08-25T17:31:36.314Z,4.80
2022-08-25T17:34:07.892Z,4.40
2022-08-25T17:36:40.917Z,4.93
2022-08-25T17:39:12.588Z,4.50
2022-08-25T17:41:45.186Z,4.93
2022-08-25T17:44:16.635Z,5.38
2022-08-25T17:46:48.908Z,5.07
2022-08-25T17:49:19.886Z,5.63
2022-08-25T17:51:50.828Z,7.13
2022-08-25T17:54:20.865Z,5.63
2022-08-25T17:56:51.081Z,5.32
2022-08-25T17:59:21.451Z,5.82
2022-08-25T18:01:55.633Z,4.78
2022-08-25T18:04:27.271Z,5.40
2022-08-25T18:07:00.549Z,5.25
2022-08-25T18:09:30.604Z,5.32
2022-08-25T18:12:00.757Z,4.82
2022-08-25T18:14:31.086Z,6.03
2022-08-25T18:17:04.887Z,5.63
2022-08-25T18:19:36.388Z,4.78
2022-08-25T18:24:37.459Z,5.35
2022-08-25T18:27:08.586Z,5.15
2022-08-25T18:29:39.183Z,6.50
2022-08-25T18:32:12.422Z,5.97
2022-08-25T18:34:42.623Z,6.05
2022-08-25T18:37:30.838Z,7.63
2022-08-25T18:40:19.784Z,5.68
2022-08-25T18:42:51.800Z,6.68
2022-08-25T18:47:58.613Z,5.13
2022-08-25T18:50:35.169Z,6.38
2022-08-25T18:53:06.179Z,5.55
2022-08-25T18:55:37.579Z,5.82
2022-08-25T18:58:09.213Z,6.97
2022-08-25T19:00:43.418Z,5.53
2022-08-25T19:03:15.918Z,5.22
2022-08-25T19:05:49.393Z,6.15
2022-08-25T19:08:28.403Z,5.68
2022-08-25T19:10:58.993Z,7.00
2022-08-25T19:13:30.191Z,6.68
2022-08-25T19:16:00.858Z,5.72
2022-08-25T19:18:32.584Z,5.65
2022-08-25T19:21:04.528Z,7.00
2022-08-25T19:23:39.185Z,6.35
2022-08-25T19:26:13.956Z,6.32
2022-08-25T19:28:49.541Z,8.55
2022-08-25T19:39:01.465Z,5.45
2022-08-25T19:41:32.642Z,5.38
2022-08-25T19:44:05.601Z,6.75
2022-08-25T19:46:38.727Z,6.10
2022-08-25T19:49:24.256Z,7.47
2022-08-25T19:51:57.218Z,5.55
2022-08-25T19:54:33.091Z,5.53
2022-08-25T19:57:06.330Z,6.43
2022-08-25T19:59:43.127Z,7.47
2022-08-25T20:02:20.290Z,7.53
2022-08-25T20:04:55.324Z,6.95
2022-08-25T20:07:29.986Z,6.95
2022-08-25T20:10:01.481Z,8.18
2022-08-25T20:12:31.576Z,7.18
2022-08-25T20:15:02.606Z,6.95
2022-08-25T20:17:32.951Z,6.50
2022-08-25T20:20:07.397Z,8.63
2022-08-25T20:22:39.068Z,6.30
2022-08-25T20:25:14.648Z,6.90
2022-08-25T20:27:52.613Z,7.20
2022-08-25T20:30:25.519Z,6.38
2022-08-25T20:32:57.820Z,6.30
2022-08-25T20:35:30.250Z,6.90
2022-08-25T20:38:02.220Z,7.78
2022-08-25T20:40:34.632Z,7.22
2022-08-25T20:43:10.378Z,6.45
2022-08-25T20:45:42.821Z,5.78
2022-08-25T20:48:13.909Z,7.65
2022-08-25T20:50:44.212Z,9.20
2022-08-25T20:53:15.298Z,10.57
2022-08-25T20:55:46.371Z,9.75
2022-08-25T20:58:18.385Z,8.48
2022-08-25T21:00:49.542Z,7.60
2022-08-25T21:03:19.745Z,8.15
2022-08-25T21:05:53.466Z,7.82
2022-08-25T21:08:24.414Z,9.07
2022-08-25T21:10:56.360Z,9.02
2022-08-25T21:13:26.838Z,7.82
2022-08-25T21:15:57.076Z,8.85
2022-08-25T21:18:31.423Z,11.10
2022-08-25T21:21:16.582Z,6.93
2022-08-25T21:23:49.759Z,14.57
2022-08-25T21:26:29.708Z,7.57
2022-08-25T21:29:01.783Z,8.60
2022-08-25T21:31:33.872Z,10.02
2022-08-25T21:34:05.851Z,10.63
2022-08-25T21:39:06.026Z,14.60
2022-08-25T21:41:38.309Z,15.10
2022-08-25T21:44:09.822Z,14.25
2022-08-25T21:46:40.592Z,11.82
2022-08-25T21:49:11.349Z,10.32
2022-08-25T21:51:46.223Z,9.93
2022-08-25T21:54:19.310Z,13.27
2022-08-25T21:56:59.107Z,14.13
2022-08-25T21:59:32.227Z,12.85
2022-08-25T22:02:05.778Z,18.60
2022-08-25T22:04:37.572Z,12.55
2022-08-25T22:07:11.238Z,10.32
2022-08-25T22:09:42.681Z,11.13
2022-08-25T22:12:13.059Z,13.50
2022-08-25T22:14:46.358Z,23.63
2022-08-25T22:17:20.922Z,13.02
2022-08-25T22:19:53.900Z,10.65
2022-08-25T22:22:24.498Z,15.98
2022-08-25T22:24:57.106Z,15.85
2022-08-25T22:27:28.058Z,13.77
2022-08-25T22:30:00.755Z,12.73
2022-08-25T22:32:32.028Z,12.23
2022-08-25T22:35:02.727Z,11.25
2022-08-25T22:37:35.011Z,14.77
2022-08-25T22:40:06.731Z,16.48
2022-08-25T22:42:37.145Z,12.70
2022-08-25T22:45:08.636Z,14.65
2022-08-25T22:47:39.599Z,11.63
2022-08-25T22:50:11.975Z,10.70
2022-08-25T22:52:42.868Z,15.63
2022-08-25T22:55:13.523Z,16.13
2022-08-25T22:57:44.439Z,13.05
2022-08-25T23:00:16.884Z,12.48
2022-08-25T23:02:48.294Z,10.05
2022-08-25T23:05:19.228Z,11.45
2022-08-25T23:07:49.980Z,10.90
2022-08-25T23:10:21.986Z,16.08
2022-08-25T23:12:52.951Z,10.90
2022-08-25T23:15:23.720Z,16.20
2022-08-25T23:17:54.233Z,12.07
2022-08-25T23:20:45.075Z,11.65
2022-08-25T23:25:46.236Z,7.93
2022-08-25T23:28:16.969Z,13.60
2022-08-25T23:30:57.340Z,11.40
2022-08-25T23:33:29.740Z,13.90
2022-08-25T23:36:05.977Z,18.60
2022-08-25T23:38:37.846Z,12.40
2022-08-25T23:41:11.691Z,16.35
2022-08-25T23:43:42.892Z,13.50
2022-08-25T23:46:14.928Z,12.40
2022-08-25T23:48:46.256Z,14.13
2022-08-25T23:51:34.610Z,14.82
2022-08-25T23:54:11.569Z,12.35
2022-08-25T23:56:51.342Z,12.30
2022-08-25T23:59:25.679Z,27.67
